sensor_id;sensor_type;location;lat;lon;timestamp;P1;P2;P0
73241;PMS5003;65659;49.234;-2.094;2023-07-29T00:00:24;0;0;
73241;PMS5003;65659;49.234;-2.094;2023-07-29T00:02:50;0;0;
73241;PMS5003;65659;49.234;-2.094;2023-07-29T00:05:16;1;1;
73241;PMS5003;65659;49.234;-2.094;2023-07-29T00:07:41;1;1;
73241;PMS5003;65659;49.234;-2.094;2023-07-29T00:10:08;0;0;
73241;PMS5003;65659;49.234;-2.094;2023-07-29T00:12:33;2;2;
73241;PMS5003;65659;49.234;-2.094;2023-07-29T00:14:59;1;1;
73241;PMS5003;65659;49.234;-2.094;2023-07-29T00:17:24;1;1;
73241;PMS5003;65659;49.234;-2.094;2023-07-29T00:19:50;1;1;
73241;PMS5003;65659;49.234;-2.094;2023-07-29T00:22:15;1;1;
73241;PMS5003;65659;49.234;-2.094;2023-07-29T00:24:41;0;0;
73241;PMS5003;65659;49.234;-2.094;2023-07-29T00:27:07;2;1;
73241;PMS5003;65659;49.234;-2.094;2023-07-29T00:29:33;0;0;
73241;PMS5003;65659;49.234;-2.094;2023-07-29T00:31:58;1;1;
73241;PMS5003;65659;49.234;-2.094;2023-07-29T00:34:24;1;1;
73241;PMS5003;65659;49.234;-2.094;2023-07-29T00:36:50;2;2;
73241;PMS5003;65659;49.234;-2.094;2023-07-29T00:39:15;1;1;
73241;PMS5003;65659;49.234;-2.094;2023-07-29T00:41:41;2;2;
73241;PMS5003;65659;49.234;-2.094;2023-07-29T00:44:07;1;1;
73241;PMS5003;65659;49.234;-2.094;2023-07-29T00:46:33;0;0;
73241;PMS5003;65659;49.234;-2.094;2023-07-29T00:48:58;1;1;
73241;PMS5003;65659;49.234;-2.094;2023-07-29T00:51:24;1;1;
73241;PMS5003;65659;49.234;-2.094;2023-07-29T00:53:50;1;1;
73241;PMS5003;65659;49.234;-2.094;2023-07-29T00:56:15;1;1;
73241;PMS5003;65659;49.234;-2.094;2023-07-29T00:58:41;0;0;
73241;PMS5003;65659;49.234;-2.094;2023-07-29T01:01:06;2;2;
73241;PMS5003;65659;49.234;-2.094;2023-07-29T01:03:32;2;2;
73241;PMS5003;65659;49.234;-2.094;2023-07-29T01:06:01;2;1;
73241;PMS5003;65659;49.234;-2.094;2023-07-29T01:08:27;2;2;
73241;PMS5003;65659;49.234;-2.094;2023-07-29T01:10:53;1;1;
73241;PMS5003;65659;49.234;-2.094;2023-07-29T01:13:17;3;3;
73241;PMS5003;65659;49.234;-2.094;2023-07-29T01:15:43;3;2;
73241;PMS5003;65659;49.234;-2.094;2023-07-29T01:18:08;0;0;
73241;PMS5003;65659;49.234;-2.094;2023-07-29T01:20:33;0;0;
73241;PMS5003;65659;49.234;-2.094;2023-07-29T01:22:58;1;1;
73241;PMS5003;65659;49.234;-2.094;2023-07-29T01:25:23;1;1;
73241;PMS5003;65659;49.234;-2.094;2023-07-29T01:27:49;1;1;
73241;PMS5003;65659;49.234;-2.094;2023-07-29T01:30:15;2;2;
73241;PMS5003;65659;49.234;-2.094;2023-07-29T01:32:42;2;2;
73241;PMS5003;65659;49.234;-2.094;2023-07-29T01:35:10;1;1;
73241;PMS5003;65659;49.234;-2.094;2023-07-29T01:37:32;2;2;
73241;PMS5003;65659;49.234;-2.094;2023-07-29T01:39:58;3;2;
73241;PMS5003;65659;49.234;-2.094;2023-07-29T01:42:23;3;3;
73241;PMS5003;65659;49.234;-2.094;2023-07-29T01:44:49;2;2;
73241;PMS5003;65659;49.234;-2.094;2023-07-29T01:47:15;4;3;
73241;PMS5003;65659;49.234;-2.094;2023-07-29T01:49:41;2;2;
73241;PMS5003;65659;49.234;-2.094;2023-07-29T01:52:06;4;4;
73241;PMS5003;65659;49.234;-2.094;2023-07-29T01:54:32;6;6;
73241;PMS5003;65659;49.234;-2.094;2023-07-29T01:56:58;4;4;
73241;PMS5003;65659;49.234;-2.094;2023-07-29T01:59:24;3;3;
73241;PMS5003;65659;49.234;-2.094;2023-07-29T02:01:49;5;5;
73241;PMS5003;65659;49.234;-2.094;2023-07-29T02:04:15;4;3;
73241;PMS5003;65659;49.234;-2.094;2023-07-29T02:06:41;5;4;
73241;PMS5003;65659;49.234;-2.094;2023-07-29T02:09:07;3;3;
73241;PMS5003;65659;49.234;-2.094;2023-07-29T02:11:33;4;3;
73241;PMS5003;65659;49.234;-2.094;2023-07-29T02:13:58;2;2;
73241;PMS5003;65659;49.234;-2.094;2023-07-29T02:16:24;4;2;
73241;PMS5003;65659;49.234;-2.094;2023-07-29T02:18:49;2;2;
73241;PMS5003;65659;49.234;-2.094;2023-07-29T02:21:15;2;1;
73241;PMS5003;65659;49.234;-2.094;2023-07-29T02:23:41;2;2;
73241;PMS5003;65659;49.234;-2.094;2023-07-29T02:26:06;1;1;
73241;PMS5003;65659;49.234;-2.094;2023-07-29T02:28:32;1;0;
73241;PMS5003;65659;49.234;-2.094;2023-07-29T02:33:23;0;0;
73241;PMS5003;65659;49.234;-2.094;2023-07-29T02:35:49;2;2;
73241;PMS5003;65659;49.234;-2.094;2023-07-29T02:38:15;1;1;
73241;PMS5003;65659;49.234;-2.094;2023-07-29T02:40:41;2;2;
73241;PMS5003;65659;49.234;-2.094;2023-07-29T02:43:06;2;1;
73241;PMS5003;65659;49.234;-2.094;2023-07-29T02:45:31;0;0;
73241;PMS5003;65659;49.234;-2.094;2023-07-29T02:47:57;2;2;
73241;PMS5003;65659;49.234;-2.094;2023-07-29T02:50:23;4;4;
73241;PMS5003;65659;49.234;-2.094;2023-07-29T02:52:48;2;2;
73241;PMS5003;65659;49.234;-2.094;2023-07-29T02:55:14;2;1;
73241;PMS5003;65659;49.234;-2.094;2023-07-29T02:57:40;2;2;
73241;PMS5003;65659;49.234;-2.094;2023-07-29T03:00:06;2;2;
73241;PMS5003;65659;49.234;-2.094;2023-07-29T03:02:31;2;2;
73241;PMS5003;65659;49.234;-2.094;2023-07-29T03:04:57;2;2;
73241;PMS5003;65659;49.234;-2.094;2023-07-29T03:07:23;1;1;
73241;PMS5003;65659;49.234;-2.094;2023-07-29T03:09:48;2;2;
73241;PMS5003;65659;49.234;-2.094;2023-07-29T03:12:14;2;2;
73241;PMS5003;65659;49.234;-2.094;2023-07-29T03:14:40;2;2;
73241;PMS5003;65659;49.234;-2.094;2023-07-29T03:17:06;3;3;
73241;PMS5003;65659;49.234;-2.094;2023-07-29T03:19:31;1;1;
73241;PMS5003;65659;49.234;-2.094;2023-07-29T03:21:57;1;1;
73241;PMS5003;65659;49.234;-2.094;2023-07-29T03:24:22;1;1;
73241;PMS5003;65659;49.234;-2.094;2023-07-29T03:26:48;0;0;
73241;PMS5003;65659;49.234;-2.094;2023-07-29T03:29:14;1;1;
73241;PMS5003;65659;49.234;-2.094;2023-07-29T03:31:39;1;1;
73241;PMS5003;65659;49.234;-2.094;2023-07-29T03:34:05;1;1;
73241;PMS5003;65659;49.234;-2.094;2023-07-29T03:36:31;2;1;
73241;PMS5003;65659;49.234;-2.094;2023-07-29T03:38:57;2;2;
73241;PMS5003;65659;49.234;-2.094;2023-07-29T03:41:22;2;2;
73241;PMS5003;65659;49.234;-2.094;2023-07-29T03:46:14;1;1;
73241;PMS5003;65659;49.234;-2.094;2023-07-29T03:48:39;1;1;
73241;PMS5003;65659;49.234;-2.094;2023-07-29T03:51:05;2;2;
73241;PMS5003;65659;49.234;-2.094;2023-07-29T03:55:56;1;1;
73241;PMS5003;65659;49.234;-2.094;2023-07-29T03:58:22;1;1;
73241;PMS5003;65659;49.234;-2.094;2023-07-29T04:00:48;1;1;
73241;PMS5003;65659;49.234;-2.094;2023-07-29T04:03:13;2;2;
73241;PMS5003;65659;49.234;-2.094;2023-07-29T04:05:39;1;1;
73241;PMS5003;65659;49.234;-2.094;2023-07-29T04:08:05;1;1;
73241;PMS5003;65659;49.234;-2.094;2023-07-29T04:10:31;1;1;
73241;PMS5003;65659;49.234;-2.094;2023-07-29T04:12:56;1;1;
73241;PMS5003;65659;49.234;-2.094;2023-07-29T04:15:22;3;2;
73241;PMS5003;65659;49.234;-2.094;2023-07-29T04:17:47;3;2;
73241;PMS5003;65659;49.234;-2.094;2023-07-29T04:20:13;0;0;
73241;PMS5003;65659;49.234;-2.094;2023-07-29T04:22:39;1;1;
73241;PMS5003;65659;49.234;-2.094;2023-07-29T04:25:05;0;0;
73241;PMS5003;65659;49.234;-2.094;2023-07-29T04:27:30;1;1;
73241;PMS5003;65659;49.234;-2.094;2023-07-29T04:32:22;1;1;
73241;PMS5003;65659;49.234;-2.094;2023-07-29T04:34:47;1;1;
73241;PMS5003;65659;49.234;-2.094;2023-07-29T04:37:13;1;1;
73241;PMS5003;65659;49.234;-2.094;2023-07-29T04:39:38;2;2;
73241;PMS5003;65659;49.234;-2.094;2023-07-29T04:42:05;1;1;
73241;PMS5003;65659;49.234;-2.094;2023-07-29T04:44:30;2;2;
73241;PMS5003;65659;49.234;-2.094;2023-07-29T04:46:56;1;1;
73241;PMS5003;65659;49.234;-2.094;2023-07-29T04:49:21;1;1;
73241;PMS5003;65659;49.234;-2.094;2023-07-29T04:51:48;0;0;
73241;PMS5003;65659;49.234;-2.094;2023-07-29T04:54:13;0;0;
73241;PMS5003;65659;49.234;-2.094;2023-07-29T04:56:38;1;1;
73241;PMS5003;65659;49.234;-2.094;2023-07-29T04:59:04;1;1;
73241;PMS5003;65659;49.234;-2.094;2023-07-29T05:01:30;2;2;
73241;PMS5003;65659;49.234;-2.094;2023-07-29T05:03:58;1;1;
73241;PMS5003;65659;49.234;-2.094;2023-07-29T05:06:21;1;1;
73241;PMS5003;65659;49.234;-2.094;2023-07-29T05:08:47;2;2;
73241;PMS5003;65659;49.234;-2.094;2023-07-29T05:11:13;1;1;
73241;PMS5003;65659;49.234;-2.094;2023-07-29T05:13:39;1;1;
73241;PMS5003;65659;49.234;-2.094;2023-07-29T05:16:04;1;1;
73241;PMS5003;65659;49.234;-2.094;2023-07-29T05:18:30;0;0;
73241;PMS5003;65659;49.234;-2.094;2023-07-29T05:20:56;1;1;
73241;PMS5003;65659;49.234;-2.094;2023-07-29T05:23:21;0;0;
73241;PMS5003;65659;49.234;-2.094;2023-07-29T05:25:47;1;1;
73241;PMS5003;65659;49.234;-2.094;2023-07-29T05:28:13;1;1;
73241;PMS5003;65659;49.234;-2.094;2023-07-29T05:30:38;3;3;
73241;PMS5003;65659;49.234;-2.094;2023-07-29T05:33:04;3;3;
73241;PMS5003;65659;49.234;-2.094;2023-07-29T05:37:56;3;2;
73241;PMS5003;65659;49.234;-2.094;2023-07-29T05:40:21;3;3;
73241;PMS5003;65659;49.234;-2.094;2023-07-29T05:42:47;1;1;
73241;PMS5003;65659;49.234;-2.094;2023-07-29T05:45:13;2;2;
73241;PMS5003;65659;49.234;-2.094;2023-07-29T05:47:38;1;1;
73241;PMS5003;65659;49.234;-2.094;2023-07-29T05:50:04;2;2;
73241;PMS5003;65659;49.234;-2.094;2023-07-29T05:52:29;2;2;
73241;PMS5003;65659;49.234;-2.094;2023-07-29T05:54:55;4;3;
73241;PMS5003;65659;49.234;-2.094;2023-07-29T05:57:21;4;3;
73241;PMS5003;65659;49.234;-2.094;2023-07-29T05:59:47;1;1;
73241;PMS5003;65659;49.234;-2.094;2023-07-29T06:02:12;5;4;
73241;PMS5003;65659;49.234;-2.094;2023-07-29T06:04:38;3;3;
73241;PMS5003;65659;49.234;-2.094;2023-07-29T06:07:04;4;3;
73241;PMS5003;65659;49.234;-2.094;2023-07-29T06:09:29;3;3;
73241;PMS5003;65659;49.234;-2.094;2023-07-29T06:11:55;3;3;
73241;PMS5003;65659;49.234;-2.094;2023-07-29T06:14:21;3;3;
73241;PMS5003;65659;49.234;-2.094;2023-07-29T06:16:46;4;4;
73241;PMS5003;65659;49.234;-2.094;2023-07-29T06:19:12;4;4;
73241;PMS5003;65659;49.234;-2.094;2023-07-29T06:21:37;3;3;
73241;PMS5003;65659;49.234;-2.094;2023-07-29T06:24:03;1;1;
73241;PMS5003;65659;49.234;-2.094;2023-07-29T06:26:29;2;2;
73241;PMS5003;65659;49.234;-2.094;2023-07-29T06:28:54;3;3;
73241;PMS5003;65659;49.234;-2.094;2023-07-29T06:31:20;3;3;
73241;PMS5003;65659;49.234;-2.094;2023-07-29T06:33:46;5;3;
73241;PMS5003;65659;49.234;-2.094;2023-07-29T06:36:11;2;2;
73241;PMS5003;65659;49.234;-2.094;2023-07-29T06:38:37;3;3;
73241;PMS5003;65659;49.234;-2.094;2023-07-29T06:41:03;3;3;
73241;PMS5003;65659;49.234;-2.094;2023-07-29T06:43:28;2;2;
73241;PMS5003;65659;49.234;-2.094;2023-07-29T06:45:54;3;3;
73241;PMS5003;65659;49.234;-2.094;2023-07-29T06:48:20;4;4;
73241;PMS5003;65659;49.234;-2.094;2023-07-29T06:50:45;2;2;
73241;PMS5003;65659;49.234;-2.094;2023-07-29T06:53:11;4;4;
73241;PMS5003;65659;49.234;-2.094;2023-07-29T06:55:37;2;2;
73241;PMS5003;65659;49.234;-2.094;2023-07-29T06:58:03;6;4;
73241;PMS5003;65659;49.234;-2.094;2023-07-29T07:00:28;3;3;
73241;PMS5003;65659;49.234;-2.094;2023-07-29T07:02:54;5;5;
73241;PMS5003;65659;49.234;-2.094;2023-07-29T07:05:20;3;3;
73241;PMS5003;65659;49.234;-2.094;2023-07-29T07:07:45;5;5;
73241;PMS5003;65659;49.234;-2.094;2023-07-29T07:10:11;5;4;
73241;PMS5003;65659;49.234;-2.094;2023-07-29T07:12:37;5;5;
73241;PMS5003;65659;49.234;-2.094;2023-07-29T07:15:02;4;4;
73241;PMS5003;65659;49.234;-2.094;2023-07-29T07:17:28;3;3;
73241;PMS5003;65659;49.234;-2.094;2023-07-29T07:19:53;4;3;
73241;PMS5003;65659;49.234;-2.094;2023-07-29T07:22:19;7;6;
73241;PMS5003;65659;49.234;-2.094;2023-07-29T07:24:45;4;3;
73241;PMS5003;65659;49.234;-2.094;2023-07-29T07:27:11;2;2;
73241;PMS5003;65659;49.234;-2.094;2023-07-29T07:29:36;4;4;
73241;PMS5003;65659;49.234;-2.094;2023-07-29T07:32:02;5;5;
73241;PMS5003;65659;49.234;-2.094;2023-07-29T07:34:28;6;4;
73241;PMS5003;65659;49.234;-2.094;2023-07-29T07:36:58;5;5;
73241;PMS5003;65659;49.234;-2.094;2023-07-29T07:39:19;5;5;
73241;PMS5003;65659;49.234;-2.094;2023-07-29T07:41:44;6;4;
73241;PMS5003;65659;49.234;-2.094;2023-07-29T07:44:10;3;3;
73241;PMS5003;65659;49.234;-2.094;2023-07-29T07:46:36;5;4;
73241;PMS5003;65659;49.234;-2.094;2023-07-29T07:49:02;4;3;
73241;PMS5003;65659;49.234;-2.094;2023-07-29T07:53:53;6;5;
73241;PMS5003;65659;49.234;-2.094;2023-07-29T07:56:18;4;4;
73241;PMS5003;65659;49.234;-2.094;2023-07-29T07:58:44;3;3;
73241;PMS5003;65659;49.234;-2.094;2023-07-29T08:01:10;5;5;
73241;PMS5003;65659;49.234;-2.094;2023-07-29T08:03:35;6;5;
73241;PMS5003;65659;49.234;-2.094;2023-07-29T08:06:01;5;4;
73241;PMS5003;65659;49.234;-2.094;2023-07-29T08:08:26;7;7;
73241;PMS5003;65659;49.234;-2.094;2023-07-29T08:10:52;7;7;
73241;PMS5003;65659;49.234;-2.094;2023-07-29T08:13:16;4;3;
73241;PMS5003;65659;49.234;-2.094;2023-07-29T08:15:45;6;5;
73241;PMS5003;65659;49.234;-2.094;2023-07-29T08:18:08;4;4;
73241;PMS5003;65659;49.234;-2.094;2023-07-29T08:20:33;5;4;
73241;PMS5003;65659;49.234;-2.094;2023-07-29T08:22:59;5;5;
73241;PMS5003;65659;49.234;-2.094;2023-07-29T08:25:24;7;7;
73241;PMS5003;65659;49.234;-2.094;2023-07-29T08:27:50;6;5;
73241;PMS5003;65659;49.234;-2.094;2023-07-29T08:30:15;5;4;
73241;PMS5003;65659;49.234;-2.094;2023-07-29T08:32:41;4;4;
73241;PMS5003;65659;49.234;-2.094;2023-07-29T08:37:33;5;5;
73241;PMS5003;65659;49.234;-2.094;2023-07-29T08:39:58;5;5;
73241;PMS5003;65659;49.234;-2.094;2023-07-29T08:42:23;5;4;
73241;PMS5003;65659;49.234;-2.094;2023-07-29T08:44:50;6;4;
73241;PMS5003;65659;49.234;-2.094;2023-07-29T08:47:15;6;5;
73241;PMS5003;65659;49.234;-2.094;2023-07-29T08:49:40;5;5;
73241;PMS5003;65659;49.234;-2.094;2023-07-29T08:52:07;5;5;
73241;PMS5003;65659;49.234;-2.094;2023-07-29T08:54:32;6;6;
73241;PMS5003;65659;49.234;-2.094;2023-07-29T08:56:57;5;4;
73241;PMS5003;65659;49.234;-2.094;2023-07-29T08:59:23;4;4;
73241;PMS5003;65659;49.234;-2.094;2023-07-29T09:01:48;5;5;
73241;PMS5003;65659;49.234;-2.094;2023-07-29T09:04:14;6;4;
73241;PMS5003;65659;49.234;-2.094;2023-07-29T09:06:40;5;5;
73241;PMS5003;65659;49.234;-2.094;2023-07-29T09:09:05;4;4;
73241;PMS5003;65659;49.234;-2.094;2023-07-29T09:11:31;5;5;
73241;PMS5003;65659;49.234;-2.094;2023-07-29T09:13:56;6;5;
73241;PMS5003;65659;49.234;-2.094;2023-07-29T09:16:22;6;4;
73241;PMS5003;65659;49.234;-2.094;2023-07-29T09:18:48;5;4;
73241;PMS5003;65659;49.234;-2.094;2023-07-29T09:21:13;5;5;
73241;PMS5003;65659;49.234;-2.094;2023-07-29T09:23:39;7;5;
73241;PMS5003;65659;49.234;-2.094;2023-07-29T09:26:04;4;4;
73241;PMS5003;65659;49.234;-2.094;2023-07-29T09:28:32;5;4;
73241;PMS5003;65659;49.234;-2.094;2023-07-29T09:30:56;5;5;
73241;PMS5003;65659;49.234;-2.094;2023-07-29T09:33:21;6;5;
73241;PMS5003;65659;49.234;-2.094;2023-07-29T09:35:47;6;6;
73241;PMS5003;65659;49.234;-2.094;2023-07-29T09:38:14;6;4;
73241;PMS5003;65659;49.234;-2.094;2023-07-29T09:40:39;5;4;
73241;PMS5003;65659;49.234;-2.094;2023-07-29T09:43:05;3;3;
73241;PMS5003;65659;49.234;-2.094;2023-07-29T09:45:30;8;8;
73241;PMS5003;65659;49.234;-2.094;2023-07-29T09:47:56;5;4;
73241;PMS5003;65659;49.234;-2.094;2023-07-29T09:50:23;6;6;
73241;PMS5003;65659;49.234;-2.094;2023-07-29T09:52:47;5;5;
73241;PMS5003;65659;49.234;-2.094;2023-07-29T09:55:12;6;4;
73241;PMS5003;65659;49.234;-2.094;2023-07-29T09:57:38;5;5;
73241;PMS5003;65659;49.234;-2.094;2023-07-29T10:00:04;5;4;
73241;PMS5003;65659;49.234;-2.094;2023-07-29T10:02:29;6;5;
73241;PMS5003;65659;49.234;-2.094;2023-07-29T10:04:54;5;5;
73241;PMS5003;65659;49.234;-2.094;2023-07-29T10:07:20;6;5;
73241;PMS5003;65659;49.234;-2.094;2023-07-29T10:09:46;6;5;
73241;PMS5003;65659;49.234;-2.094;2023-07-29T10:12:11;7;6;
73241;PMS5003;65659;49.234;-2.094;2023-07-29T10:14:37;5;5;
73241;PMS5003;65659;49.234;-2.094;2023-07-29T10:17:03;6;6;
73241;PMS5003;65659;49.234;-2.094;2023-07-29T10:19:28;10;9;
73241;PMS5003;65659;49.234;-2.094;2023-07-29T10:21:53;5;5;
73241;PMS5003;65659;49.234;-2.094;2023-07-29T10:24:19;5;4;
73241;PMS5003;65659;49.234;-2.094;2023-07-29T10:26:44;5;5;
73241;PMS5003;65659;49.234;-2.094;2023-07-29T10:29:09;4;3;
73241;PMS5003;65659;49.234;-2.094;2023-07-29T10:31:35;5;5;
73241;PMS5003;65659;49.234;-2.094;2023-07-29T10:34:00;5;4;
73241;PMS5003;65659;49.234;-2.094;2023-07-29T10:36:26;5;4;
73241;PMS5003;65659;49.234;-2.094;2023-07-29T10:38:52;3;3;
73241;PMS5003;65659;49.234;-2.094;2023-07-29T10:41:17;4;4;
73241;PMS5003;65659;49.234;-2.094;2023-07-29T10:43:43;4;4;
73241;PMS5003;65659;49.234;-2.094;2023-07-29T10:46:15;5;5;
73241;PMS5003;65659;49.234;-2.094;2023-07-29T10:53:29;3;3;
73241;PMS5003;65659;49.234;-2.094;2023-07-29T10:55:51;5;4;
73241;PMS5003;65659;49.234;-2.094;2023-07-29T10:58:16;4;4;
73241;PMS5003;65659;49.234;-2.094;2023-07-29T11:00:42;3;2;
73241;PMS5003;65659;49.234;-2.094;2023-07-29T11:03:08;4;4;
73241;PMS5003;65659;49.234;-2.094;2023-07-29T11:05:43;3;3;
73241;PMS5003;65659;49.234;-2.094;2023-07-29T11:08:00;4;4;
73241;PMS5003;65659;49.234;-2.094;2023-07-29T11:10:24;4;4;
73241;PMS5003;65659;49.234;-2.094;2023-07-29T11:12:50;3;3;
73241;PMS5003;65659;49.234;-2.094;2023-07-29T11:15:16;3;3;
73241;PMS5003;65659;49.234;-2.094;2023-07-29T11:17:42;5;4;
73241;PMS5003;65659;49.234;-2.094;2023-07-29T11:20:07;5;5;
73241;PMS5003;65659;49.234;-2.094;2023-07-29T11:22:32;4;4;
73241;PMS5003;65659;49.234;-2.094;2023-07-29T11:24:58;5;5;
73241;PMS5003;65659;49.234;-2.094;2023-07-29T11:27:23;4;4;
73241;PMS5003;65659;49.234;-2.094;2023-07-29T11:29:49;4;3;
73241;PMS5003;65659;49.234;-2.094;2023-07-29T11:32:15;4;3;
73241;PMS5003;65659;49.234;-2.094;2023-07-29T11:34:40;5;4;
73241;PMS5003;65659;49.234;-2.094;2023-07-29T11:37:06;6;4;
73241;PMS5003;65659;49.234;-2.094;2023-07-29T11:39:31;5;4;
73241;PMS5003;65659;49.234;-2.094;2023-07-29T11:41:57;5;5;
73241;PMS5003;65659;49.234;-2.094;2023-07-29T11:44:23;7;5;
73241;PMS5003;65659;49.234;-2.094;2023-07-29T11:46:49;5;3;
73241;PMS5003;65659;49.234;-2.094;2023-07-29T11:49:14;5;4;
73241;PMS5003;65659;49.234;-2.094;2023-07-29T11:51:39;8;8;
73241;PMS5003;65659;49.234;-2.094;2023-07-29T11:54:05;7;7;
73241;PMS5003;65659;49.234;-2.094;2023-07-29T11:56:30;3;3;
73241;PMS5003;65659;49.234;-2.094;2023-07-29T11:58:56;3;3;
73241;PMS5003;65659;49.234;-2.094;2023-07-29T12:01:22;3;3;
73241;PMS5003;65659;49.234;-2.094;2023-07-29T12:03:48;3;3;
73241;PMS5003;65659;49.234;-2.094;2023-07-29T12:06:13;3;2;
73241;PMS5003;65659;49.234;-2.094;2023-07-29T12:08:38;6;6;
73241;PMS5003;65659;49.234;-2.094;2023-07-29T12:11:04;4;4;
73241;PMS5003;65659;49.234;-2.094;2023-07-29T12:13:30;2;2;
73241;PMS5003;65659;49.234;-2.094;2023-07-29T12:16:01;3;3;
73241;PMS5003;65659;49.234;-2.094;2023-07-29T12:20:47;5;4;
73241;PMS5003;65659;49.234;-2.094;2023-07-29T12:23:12;4;3;
73241;PMS5003;65659;49.234;-2.094;2023-07-29T12:25:38;5;5;
73241;PMS5003;65659;49.234;-2.094;2023-07-29T12:28:04;4;4;
73241;PMS5003;65659;49.234;-2.094;2023-07-29T12:30:29;4;4;
73241;PMS5003;65659;49.234;-2.094;2023-07-29T12:32:55;5;4;
73241;PMS5003;65659;49.234;-2.094;2023-07-29T12:35:21;5;4;
73241;PMS5003;65659;49.234;-2.094;2023-07-29T12:37:46;3;3;
73241;PMS5003;65659;49.234;-2.094;2023-07-29T12:40:21;4;4;
73241;PMS5003;65659;49.234;-2.094;2023-07-29T12:42:40;6;6;
73241;PMS5003;65659;49.234;-2.094;2023-07-29T12:45:04;5;5;
73241;PMS5003;65659;49.234;-2.094;2023-07-29T12:47:29;5;5;
73241;PMS5003;65659;49.234;-2.094;2023-07-29T12:49:55;5;5;
73241;PMS5003;65659;49.234;-2.094;2023-07-29T12:52:20;3;3;
73241;PMS5003;65659;49.234;-2.094;2023-07-29T12:54:46;4;4;
73241;PMS5003;65659;49.234;-2.094;2023-07-29T12:57:12;6;5;
73241;PMS5003;65659;49.234;-2.094;2023-07-29T12:59:37;5;5;
73241;PMS5003;65659;49.234;-2.094;2023-07-29T13:02:03;5;5;
73241;PMS5003;65659;49.234;-2.094;2023-07-29T13:04:29;6;4;
73241;PMS5003;65659;49.234;-2.094;2023-07-29T13:06:54;5;5;
73241;PMS5003;65659;49.234;-2.094;2023-07-29T13:09:19;5;5;
73241;PMS5003;65659;49.234;-2.094;2023-07-29T13:11:46;4;3;
73241;PMS5003;65659;49.234;-2.094;2023-07-29T13:14:11;3;3;
73241;PMS5003;65659;49.234;-2.094;2023-07-29T13:16:36;4;4;
73241;PMS5003;65659;49.234;-2.094;2023-07-29T13:19:02;5;4;
73241;PMS5003;65659;49.234;-2.094;2023-07-29T13:21:28;3;3;
73241;PMS5003;65659;49.234;-2.094;2023-07-29T13:23:53;2;2;
73241;PMS5003;65659;49.234;-2.094;2023-07-29T13:26:19;3;3;
73241;PMS5003;65659;49.234;-2.094;2023-07-29T13:28:45;6;5;
73241;PMS5003;65659;49.234;-2.094;2023-07-29T13:31:10;4;3;
73241;PMS5003;65659;49.234;-2.094;2023-07-29T13:33:36;4;4;
73241;PMS5003;65659;49.234;-2.094;2023-07-29T13:36:02;4;3;
73241;PMS5003;65659;49.234;-2.094;2023-07-29T13:38:27;3;3;
73241;PMS5003;65659;49.234;-2.094;2023-07-29T13:40:53;2;2;
73241;PMS5003;65659;49.234;-2.094;2023-07-29T13:43:19;3;3;
73241;PMS5003;65659;49.234;-2.094;2023-07-29T13:45:45;5;3;
73241;PMS5003;65659;49.234;-2.094;2023-07-29T13:48:10;5;4;
73241;PMS5003;65659;49.234;-2.094;2023-07-29T13:50:36;2;2;
73241;PMS5003;65659;49.234;-2.094;2023-07-29T13:53:02;3;3;
73241;PMS5003;65659;49.234;-2.094;2023-07-29T13:55:27;4;3;
73241;PMS5003;65659;49.234;-2.094;2023-07-29T13:57:53;3;3;
73241;PMS5003;65659;49.234;-2.094;2023-07-29T14:00:19;2;2;
73241;PMS5003;65659;49.234;-2.094;2023-07-29T14:02:44;3;3;
73241;PMS5003;65659;49.234;-2.094;2023-07-29T14:05:10;4;3;
73241;PMS5003;65659;49.234;-2.094;2023-07-29T14:07:36;1;1;
73241;PMS5003;65659;49.234;-2.094;2023-07-29T14:10:02;2;2;
73241;PMS5003;65659;49.234;-2.094;2023-07-29T14:12:27;3;3;
73241;PMS5003;65659;49.234;-2.094;2023-07-29T14:14:53;3;3;
73241;PMS5003;65659;49.234;-2.094;2023-07-29T14:17:19;3;3;
73241;PMS5003;65659;49.234;-2.094;2023-07-29T14:19:44;3;3;
73241;PMS5003;65659;49.234;-2.094;2023-07-29T14:22:10;4;3;
73241;PMS5003;65659;49.234;-2.094;2023-07-29T14:24:36;4;4;
73241;PMS5003;65659;49.234;-2.094;2023-07-29T14:27:02;4;4;
73241;PMS5003;65659;49.234;-2.094;2023-07-29T14:29:27;4;4;
73241;PMS5003;65659;49.234;-2.094;2023-07-29T14:31:53;4;3;
73241;PMS5003;65659;49.234;-2.094;2023-07-29T14:34:18;8;8;
73241;PMS5003;65659;49.234;-2.094;2023-07-29T14:36:43;4;4;
73241;PMS5003;65659;49.234;-2.094;2023-07-29T14:39:09;3;3;
73241;PMS5003;65659;49.234;-2.094;2023-07-29T14:41:35;3;3;
73241;PMS5003;65659;49.234;-2.094;2023-07-29T14:44:00;6;6;
73241;PMS5003;65659;49.234;-2.094;2023-07-29T14:46:25;4;3;
73241;PMS5003;65659;49.234;-2.094;2023-07-29T14:48:51;4;3;
73241;PMS5003;65659;49.234;-2.094;2023-07-29T14:51:17;4;3;
73241;PMS5003;65659;49.234;-2.094;2023-07-29T14:53:42;6;5;
73241;PMS5003;65659;49.234;-2.094;2023-07-29T14:56:07;4;4;
73241;PMS5003;65659;49.234;-2.094;2023-07-29T14:58:33;8;8;
73241;PMS5003;65659;49.234;-2.094;2023-07-29T15:00:59;6;6;
73241;PMS5003;65659;49.234;-2.094;2023-07-29T15:03:24;4;3;
73241;PMS5003;65659;49.234;-2.094;2023-07-29T15:05:50;4;3;
73241;PMS5003;65659;49.234;-2.094;2023-07-29T15:08:16;7;5;
73241;PMS5003;65659;49.234;-2.094;2023-07-29T15:10:41;6;6;
73241;PMS5003;65659;49.234;-2.094;2023-07-29T15:13:06;5;5;
73241;PMS5003;65659;49.234;-2.094;2023-07-29T15:15:31;6;5;
73241;PMS5003;65659;49.234;-2.094;2023-07-29T15:17:57;6;5;
73241;PMS5003;65659;49.234;-2.094;2023-07-29T15:20:23;3;3;
73241;PMS5003;65659;49.234;-2.094;2023-07-29T15:22:49;3;3;
73241;PMS5003;65659;49.234;-2.094;2023-07-29T15:25:14;9;8;
73241;PMS5003;65659;49.234;-2.094;2023-07-29T15:27:39;3;3;
73241;PMS5003;65659;49.234;-2.094;2023-07-29T15:30:05;4;4;
73241;PMS5003;65659;49.234;-2.094;2023-07-29T15:32:30;4;4;
73241;PMS5003;65659;49.234;-2.094;2023-07-29T15:34:56;6;5;
73241;PMS5003;65659;49.234;-2.094;2023-07-29T15:37:21;4;2;
73241;PMS5003;65659;49.234;-2.094;2023-07-29T15:39:47;5;4;
73241;PMS5003;65659;49.234;-2.094;2023-07-29T15:42:13;4;4;
73241;PMS5003;65659;49.234;-2.094;2023-07-29T15:44:38;2;2;
73241;PMS5003;65659;49.234;-2.094;2023-07-29T15:47:04;5;4;
73241;PMS5003;65659;49.234;-2.094;2023-07-29T15:49:29;5;4;
73241;PMS5003;65659;49.234;-2.094;2023-07-29T15:51:55;4;4;
73241;PMS5003;65659;49.234;-2.094;2023-07-29T15:54:20;3;3;
73241;PMS5003;65659;49.234;-2.094;2023-07-29T15:56:46;4;3;
73241;PMS5003;65659;49.234;-2.094;2023-07-29T15:59:12;5;4;
73241;PMS5003;65659;49.234;-2.094;2023-07-29T16:01:38;2;2;
73241;PMS5003;65659;49.234;-2.094;2023-07-29T16:04:03;2;2;
73241;PMS5003;65659;49.234;-2.094;2023-07-29T16:06:29;3;3;
73241;PMS5003;65659;49.234;-2.094;2023-07-29T16:08:54;4;4;
73241;PMS5003;65659;49.234;-2.094;2023-07-29T16:11:20;3;3;
73241;PMS5003;65659;49.234;-2.094;2023-07-29T16:13:46;4;4;
73241;PMS5003;65659;49.234;-2.094;2023-07-29T16:16:11;5;4;
73241;PMS5003;65659;49.234;-2.094;2023-07-29T16:18:37;3;3;
73241;PMS5003;65659;49.234;-2.094;2023-07-29T16:21:03;4;4;
73241;PMS5003;65659;49.234;-2.094;2023-07-29T16:23:28;4;4;
73241;PMS5003;65659;49.234;-2.094;2023-07-29T16:25:54;3;3;
73241;PMS5003;65659;49.234;-2.094;2023-07-29T16:28:20;2;2;
73241;PMS5003;65659;49.234;-2.094;2023-07-29T16:30:45;4;3;
73241;PMS5003;65659;49.234;-2.094;2023-07-29T16:33:11;2;2;
73241;PMS5003;65659;49.234;-2.094;2023-07-29T16:35:38;3;3;
73241;PMS5003;65659;49.234;-2.094;2023-07-29T16:38:02;5;5;
73241;PMS5003;65659;49.234;-2.094;2023-07-29T16:40:28;2;2;
73241;PMS5003;65659;49.234;-2.094;2023-07-29T16:42:53;3;3;
73241;PMS5003;65659;49.234;-2.094;2023-07-29T16:45:19;2;2;